This is the latest recevied weather packets stored in our database for station/object 9M4GEK-3. If no packets are shown the sender has not sent any weather packets the latest 10 day(s).
| Time | Temp. | Humidity | Pressure | Rain* | Wind** | Luminosity | Snow |
|---|---|---|---|---|---|---|---|
| 1777792816 | 33.33° C | 49% | 1005.9 hPa | - | - | - | - |
| 1777791918 | 36.11° C | 44% | 1005.7 hPa | - | - | - | - |
| 1777791017 | 38.33° C | 39% | 1006.1 hPa | - | - | - | - |
| 1777790207 | 41.67° C | 36% | 1006.1 hPa | - | - | - | - |
| 1777790117 | 41.67° C | 36% | 1006.1 hPa | - | - | - | - |
| 1777789217 | 41.67° C | 35% | 1006.2 hPa | - | - | - | - |
| 1777788316 | 41.67° C | 35% | 1006.9 hPa | - | - | - | - |
| 1777787416 | 41.67° C | 34% | 1007.1 hPa | - | - | - | - |
| 1777786610 | 42.78° C | 33% | 1007.4 hPa | - | - | - | - |
| 1777786516 | 42.78° C | 33% | 1007.4 hPa | - | - | - | - |
| 1777785615 | 44.44° C | 31% | 1007.8 hPa | - | - | - | - |
| 1777784761 | 44.44° C | 33% | 1008.3 hPa | - | - | - | - |
| 1777784715 | 44.44° C | 33% | 1008.3 hPa | - | - | - | - |
| 1777783814 | 44.44° C | 34% | 1008.6 hPa | - | - | - | - |
| 1777783007 | 44.44° C | 34% | 1008.9 hPa | - | - | - | - |
| 1777782915 | 44.44° C | 34% | 1008.9 hPa | - | - | - | - |
| 1777782014 | 43.33° C | 38% | 1009 hPa | - | - | - | - |
| 1777781241 | 40.56° C | 41% | 1009.3 hPa | - | - | - | - |
| 1777781149 | 40.56° C | 41% | 1009.3 hPa | - | - | - | - |
| 1777781114 | 40.56° C | 41% | 1009.3 hPa | - | - | - | - |
| 1777780214 | 37.22° C | 47% | 1009.5 hPa | - | - | - | - |
| 1777779313 | 37.22° C | 47% | 1009.4 hPa | - | - | - | - |
| 1777778413 | 38.33° C | 46% | 1009.4 hPa | - | - | - | - |
| 1777777679 | 37.78° C | 46% | 1009.4 hPa | - | - | - | - |
| 1777777512 | 37.78° C | 46% | 1009.4 hPa | - | - | - | - |
* Rain since midnight (hover to see other rain measurements)
** Current wind speed in m/s (hover to see current wind gust speed)